sensor_id;sensor_type;location;lat;lon;timestamp;P1;durP1;ratioP1;P2;durP2;ratioP2
24159;SDS011;62385;41.594;23.808;2023-03-08T00:00:59;4.70;;;2.33;;
24159;SDS011;62385;41.594;23.808;2023-03-08T00:03:25;5.47;;;2.60;;
24159;SDS011;62385;41.594;23.808;2023-03-08T00:05:51;1.43;;;0.60;;
24159;SDS011;62385;41.594;23.808;2023-03-08T00:08:16;0.53;;;0.53;;
24159;SDS011;62385;41.594;23.808;2023-03-08T00:10:42;2.17;;;1.13;;
24159;SDS011;62385;41.594;23.808;2023-03-08T00:13:08;0.80;;;0.40;;
24159;SDS011;62385;41.594;23.808;2023-03-08T00:15:37;1.00;;;0.87;;
24159;SDS011;62385;41.594;23.808;2023-03-08T00:18:06;1.17;;;0.93;;
24159;SDS011;62385;41.594;23.808;2023-03-08T00:20:32;1.27;;;1.10;;
24159;SDS011;62385;41.594;23.808;2023-03-08T00:22:58;1.37;;;0.70;;
24159;SDS011;62385;41.594;23.808;2023-03-08T00:25:24;2.60;;;1.20;;
24159;SDS011;62385;41.594;23.808;2023-03-08T00:27:50;2.23;;;1.00;;
24159;SDS011;62385;41.594;23.808;2023-03-08T00:30:15;4.33;;;1.97;;
24159;SDS011;62385;41.594;23.808;2023-03-08T00:32:41;1.37;;;1.13;;
24159;SDS011;62385;41.594;23.808;2023-03-08T00:35:07;2.40;;;0.87;;
24159;SDS011;62385;41.594;23.808;2023-03-08T00:37:36;0.80;;;0.80;;
24159;SDS011;62385;41.594;23.808;2023-03-08T00:40:03;0.90;;;0.70;;
24159;SDS011;62385;41.594;23.808;2023-03-08T00:42:33;0.73;;;0.60;;
24159;SDS011;62385;41.594;23.808;2023-03-08T00:44:59;1.03;;;0.30;;
24159;SDS011;62385;41.594;23.808;2023-03-08T00:47:26;0.40;;;0.40;;
24159;SDS011;62385;41.594;23.808;2023-03-08T00:49:52;1.13;;;0.93;;
24159;SDS011;62385;41.594;23.808;2023-03-08T00:52:19;0.30;;;0.30;;
24159;SDS011;62385;41.594;23.808;2023-03-08T00:54:45;2.67;;;0.90;;
24159;SDS011;62385;41.594;23.808;2023-03-08T00:57:10;0.57;;;0.50;;
24159;SDS011;62385;41.594;23.808;2023-03-08T00:59:36;0.23;;;0.17;;
24159;SDS011;62385;41.594;23.808;2023-03-08T01:02:01;1.43;;;0.70;;
24159;SDS011;62385;41.594;23.808;2023-03-08T01:04:27;0.63;;;0.50;;
24159;SDS011;62385;41.594;23.808;2023-03-08T01:06:52;1.13;;;0.97;;
24159;SDS011;62385;41.594;23.808;2023-03-08T01:09:18;0.90;;;0.43;;
24159;SDS011;62385;41.594;23.808;2023-03-08T01:11:44;0.60;;;0.60;;
24159;SDS011;62385;41.594;23.808;2023-03-08T01:14:11;1.03;;;0.53;;
24159;SDS011;62385;41.594;23.808;2023-03-08T01:16:37;1.33;;;0.60;;
24159;SDS011;62385;41.594;23.808;2023-03-08T01:19:03;0.43;;;0.20;;
24159;SDS011;62385;41.594;23.808;2023-03-08T01:21:29;1.90;;;0.67;;
24159;SDS011;62385;41.594;23.808;2023-03-08T01:23:55;0.30;;;0.20;;
24159;SDS011;62385;41.594;23.808;2023-03-08T01:26:22;0.63;;;0.57;;
24159;SDS011;62385;41.594;23.808;2023-03-08T01:28:52;4.80;;;0.77;;
24159;SDS011;62385;41.594;23.808;2023-03-08T01:31:19;0.77;;;0.73;;
24159;SDS011;62385;41.594;23.808;2023-03-08T01:33:47;1.33;;;0.73;;
24159;SDS011;62385;41.594;23.808;2023-03-08T01:36:14;0.70;;;0.47;;
24159;SDS011;62385;41.594;23.808;2023-03-08T01:38:43;0.30;;;0.30;;
24159;SDS011;62385;41.594;23.808;2023-03-08T01:41:19;0.97;;;0.83;;
24159;SDS011;62385;41.594;23.808;2023-03-08T01:43:48;1.87;;;1.10;;
24159;SDS011;62385;41.594;23.808;2023-03-08T01:46:16;2.37;;;1.50;;
24159;SDS011;62385;41.594;23.808;2023-03-08T01:51:35;1.93;;;1.13;;
24159;SDS011;62385;41.594;23.808;2023-03-08T01:54:34;3.90;;;1.33;;
24159;SDS011;62385;41.594;23.808;2023-03-08T01:57:06;1.13;;;0.47;;
24159;SDS011;62385;41.594;23.808;2023-03-08T01:59:35;1.10;;;0.83;;
24159;SDS011;62385;41.594;23.808;2023-03-08T02:02:03;0.90;;;0.70;;
24159;SDS011;62385;41.594;23.808;2023-03-08T02:04:31;0.30;;;0.30;;
24159;SDS011;62385;41.594;23.808;2023-03-08T02:06:57;0.43;;;0.33;;
24159;SDS011;62385;41.594;23.808;2023-03-08T02:09:25;0.77;;;0.67;;
24159;SDS011;62385;41.594;23.808;2023-03-08T02:11:51;1.20;;;0.97;;
24159;SDS011;62385;41.594;23.808;2023-03-08T02:14:21;1.70;;;1.47;;
24159;SDS011;62385;41.594;23.808;2023-03-08T02:16:49;1.47;;;0.87;;
24159;SDS011;62385;41.594;23.808;2023-03-08T02:19:22;1.20;;;1.10;;
24159;SDS011;62385;41.594;23.808;2023-03-08T02:21:56;1.60;;;0.67;;
24159;SDS011;62385;41.594;23.808;2023-03-08T02:24:22;1.90;;;1.17;;
24159;SDS011;62385;41.594;23.808;2023-03-08T02:26:54;1.00;;;0.73;;
24159;SDS011;62385;41.594;23.808;2023-03-08T02:29:25;2.57;;;1.37;;
24159;SDS011;62385;41.594;23.808;2023-03-08T02:31:53;2.17;;;1.53;;
24159;SDS011;62385;41.594;23.808;2023-03-08T02:34:19;2.57;;;1.40;;
24159;SDS011;62385;41.594;23.808;2023-03-08T02:36:45;9.10;;;1.50;;
24159;SDS011;62385;41.594;23.808;2023-03-08T02:39:12;3.83;;;1.90;;
24159;SDS011;62385;41.594;23.808;2023-03-08T02:41:38;2.17;;;1.57;;
24159;SDS011;62385;41.594;23.808;2023-03-08T02:44:04;3.10;;;1.40;;
24159;SDS011;62385;41.594;23.808;2023-03-08T02:46:29;1.27;;;1.17;;
24159;SDS011;62385;41.594;23.808;2023-03-08T02:48:56;5.93;;;1.70;;
24159;SDS011;62385;41.594;23.808;2023-03-08T02:51:22;1.27;;;0.83;;
24159;SDS011;62385;41.594;23.808;2023-03-08T02:53:48;4.13;;;1.37;;
24159;SDS011;62385;41.594;23.808;2023-03-08T02:56:14;5.83;;;1.67;;
24159;SDS011;62385;41.594;23.808;2023-03-08T02:58:39;2.67;;;1.20;;
24159;SDS011;62385;41.594;23.808;2023-03-08T03:01:09;1.50;;;1.07;;
24159;SDS011;62385;41.594;23.808;2023-03-08T03:03:38;0.93;;;0.87;;
24159;SDS011;62385;41.594;23.808;2023-03-08T03:06:04;1.00;;;0.90;;
24159;SDS011;62385;41.594;23.808;2023-03-08T03:08:36;1.73;;;0.60;;
24159;SDS011;62385;41.594;23.808;2023-03-08T03:11:09;1.87;;;1.07;;
24159;SDS011;62385;41.594;23.808;2023-03-08T03:13:36;2.43;;;1.40;;
24159;SDS011;62385;41.594;23.808;2023-03-08T03:16:08;1.37;;;0.60;;
24159;SDS011;62385;41.594;23.808;2023-03-08T03:18:36;3.70;;;0.60;;
24159;SDS011;62385;41.594;23.808;2023-03-08T03:21:06;1.17;;;1.07;;
24159;SDS011;62385;41.594;23.808;2023-03-08T03:23:33;0.20;;;0.17;;
24159;SDS011;62385;41.594;23.808;2023-03-08T03:26:06;1.87;;;1.40;;
24159;SDS011;62385;41.594;23.808;2023-03-08T03:28:36;2.77;;;0.83;;
24159;SDS011;62385;41.594;23.808;2023-03-08T03:31:07;0.80;;;0.80;;
24159;SDS011;62385;41.594;23.808;2023-03-08T03:33:34;1.33;;;0.77;;
24159;SDS011;62385;41.594;23.808;2023-03-08T03:36:00;1.30;;;0.97;;
24159;SDS011;62385;41.594;23.808;2023-03-08T03:38:27;0.60;;;0.47;;
24159;SDS011;62385;41.594;23.808;2023-03-08T03:41:00;1.30;;;1.03;;
24159;SDS011;62385;41.594;23.808;2023-03-08T03:43:30;0.60;;;0.50;;
24159;SDS011;62385;41.594;23.808;2023-03-08T03:45:59;0.47;;;0.40;;
24159;SDS011;62385;41.594;23.808;2023-03-08T03:48:26;1.50;;;0.60;;
24159;SDS011;62385;41.594;23.808;2023-03-08T03:50:56;1.00;;;0.57;;
24159;SDS011;62385;41.594;23.808;2023-03-08T03:53:34;2.03;;;0.70;;
24159;SDS011;62385;41.594;23.808;2023-03-08T03:56:05;2.30;;;0.57;;
24159;SDS011;62385;41.594;23.808;2023-03-08T03:58:33;0.20;;;0.20;;
24159;SDS011;62385;41.594;23.808;2023-03-08T04:00:59;1.40;;;1.03;;
24159;SDS011;62385;41.594;23.808;2023-03-08T04:03:29;1.03;;;0.60;;
24159;SDS011;62385;41.594;23.808;2023-03-08T04:05:54;0.93;;;0.80;;
24159;SDS011;62385;41.594;23.808;2023-03-08T04:08:40;0.97;;;0.90;;
24159;SDS011;62385;41.594;23.808;2023-03-08T04:11:09;0.83;;;0.80;;
24159;SDS011;62385;41.594;23.808;2023-03-08T04:13:37;7.00;;;1.80;;
24159;SDS011;62385;41.594;23.808;2023-03-08T04:16:17;1.50;;;1.30;;
24159;SDS011;62385;41.594;23.808;2023-03-08T04:18:44;4.03;;;1.47;;
24159;SDS011;62385;41.594;23.808;2023-03-08T04:21:10;1.73;;;1.30;;
24159;SDS011;62385;41.594;23.808;2023-03-08T04:23:38;0.43;;;0.33;;
24159;SDS011;62385;41.594;23.808;2023-03-08T04:26:06;0.60;;;0.57;;
24159;SDS011;62385;41.594;23.808;2023-03-08T04:28:50;2.23;;;0.77;;
24159;SDS011;62385;41.594;23.808;2023-03-08T04:31:18;2.13;;;1.63;;
24159;SDS011;62385;41.594;23.808;2023-03-08T04:33:48;14.07;;;8.13;;
24159;SDS011;62385;41.594;23.808;2023-03-08T04:36:15;3.33;;;2.83;;
24159;SDS011;62385;41.594;23.808;2023-03-08T04:38:44;4.77;;;2.33;;
24159;SDS011;62385;41.594;23.808;2023-03-08T04:41:10;3.30;;;2.03;;
24159;SDS011;62385;41.594;23.808;2023-03-08T04:46:10;1.27;;;1.17;;
24159;SDS011;62385;41.594;23.808;2023-03-08T04:48:37;2.70;;;1.47;;
24159;SDS011;62385;41.594;23.808;2023-03-08T04:51:05;1.07;;;0.63;;
24159;SDS011;62385;41.594;23.808;2023-03-08T04:53:31;1.93;;;1.80;;
24159;SDS011;62385;41.594;23.808;2023-03-08T04:55:58;8.97;;;5.73;;
24159;SDS011;62385;41.594;23.808;2023-03-08T04:58:28;6.70;;;3.83;;
24159;SDS011;62385;41.594;23.808;2023-03-08T05:00:55;3.53;;;1.57;;
24159;SDS011;62385;41.594;23.808;2023-03-08T05:03:21;1.77;;;1.67;;
24159;SDS011;62385;41.594;23.808;2023-03-08T05:05:49;1.20;;;1.10;;
24159;SDS011;62385;41.594;23.808;2023-03-08T05:08:20;1.47;;;1.37;;
24159;SDS011;62385;41.594;23.808;2023-03-08T05:10:57;1.60;;;1.50;;
24159;SDS011;62385;41.594;23.808;2023-03-08T05:13:29;2.53;;;1.90;;
24159;SDS011;62385;41.594;23.808;2023-03-08T05:15:56;0.87;;;0.83;;
24159;SDS011;62385;41.594;23.808;2023-03-08T05:18:23;1.63;;;1.37;;
24159;SDS011;62385;41.594;23.808;2023-03-08T05:20:55;10.83;;;6.87;;
24159;SDS011;62385;41.594;23.808;2023-03-08T05:23:23;16.97;;;8.67;;
24159;SDS011;62385;41.594;23.808;2023-03-08T05:25:51;13.97;;;8.83;;
24159;SDS011;62385;41.594;23.808;2023-03-08T05:28:22;11.10;;;6.03;;
24159;SDS011;62385;41.594;23.808;2023-03-08T05:30:49;4.83;;;3.73;;
24159;SDS011;62385;41.594;23.808;2023-03-08T05:33:15;4.53;;;1.47;;
24159;SDS011;62385;41.594;23.808;2023-03-08T05:35:41;4.73;;;2.83;;
24159;SDS011;62385;41.594;23.808;2023-03-08T05:38:08;5.03;;;1.97;;
24159;SDS011;62385;41.594;23.808;2023-03-08T05:40:36;2.57;;;2.27;;
24159;SDS011;62385;41.594;23.808;2023-03-08T05:43:02;2.63;;;1.90;;
24159;SDS011;62385;41.594;23.808;2023-03-08T05:45:28;4.17;;;2.77;;
24159;SDS011;62385;41.594;23.808;2023-03-08T05:47:54;3.73;;;1.63;;
24159;SDS011;62385;41.594;23.808;2023-03-08T05:50:21;1.10;;;1.03;;
24159;SDS011;62385;41.594;23.808;2023-03-08T05:52:50;5.00;;;1.20;;
24159;SDS011;62385;41.594;23.808;2023-03-08T05:55:20;1.20;;;1.10;;
24159;SDS011;62385;41.594;23.808;2023-03-08T05:57:46;0.87;;;0.87;;
24159;SDS011;62385;41.594;23.808;2023-03-08T06:00:13;3.20;;;2.80;;
24159;SDS011;62385;41.594;23.808;2023-03-08T06:02:48;1.23;;;1.13;;
24159;SDS011;62385;41.594;23.808;2023-03-08T06:05:13;18.77;;;5.40;;
24159;SDS011;62385;41.594;23.808;2023-03-08T06:07:40;5.80;;;5.17;;
24159;SDS011;62385;41.594;23.808;2023-03-08T06:10:11;4.10;;;2.37;;
24159;SDS011;62385;41.594;23.808;2023-03-08T06:12:37;1.53;;;1.43;;
24159;SDS011;62385;41.594;23.808;2023-03-08T06:15:05;6.80;;;1.63;;
24159;SDS011;62385;41.594;23.808;2023-03-08T06:17:34;1.93;;;1.73;;
24159;SDS011;62385;41.594;23.808;2023-03-08T06:20:00;2.33;;;1.20;;
24159;SDS011;62385;41.594;23.808;2023-03-08T06:22:25;1.43;;;1.20;;
24159;SDS011;62385;41.594;23.808;2023-03-08T06:24:52;9.20;;;6.07;;
24159;SDS011;62385;41.594;23.808;2023-03-08T06:27:26;6.10;;;4.00;;
24159;SDS011;62385;41.594;23.808;2023-03-08T06:29:54;3.07;;;2.83;;
24159;SDS011;62385;41.594;23.808;2023-03-08T06:32:21;7.80;;;3.40;;
24159;SDS011;62385;41.594;23.808;2023-03-08T06:34:46;10.17;;;3.53;;
24159;SDS011;62385;41.594;23.808;2023-03-08T06:37:12;4.60;;;2.47;;
24159;SDS011;62385;41.594;23.808;2023-03-08T06:39:39;5.33;;;2.70;;
24159;SDS011;62385;41.594;23.808;2023-03-08T06:42:05;5.43;;;3.30;;
24159;SDS011;62385;41.594;23.808;2023-03-08T06:44:33;3.87;;;2.47;;
24159;SDS011;62385;41.594;23.808;2023-03-08T06:46:58;5.23;;;2.70;;
24159;SDS011;62385;41.594;23.808;2023-03-08T06:49:24;2.00;;;1.70;;
24159;SDS011;62385;41.594;23.808;2023-03-08T06:51:50;2.27;;;1.63;;
24159;SDS011;62385;41.594;23.808;2023-03-08T06:54:15;3.37;;;1.10;;
24159;SDS011;62385;41.594;23.808;2023-03-08T06:56:43;1.80;;;0.80;;
24159;SDS011;62385;41.594;23.808;2023-03-08T06:59:13;3.33;;;1.87;;
24159;SDS011;62385;41.594;23.808;2023-03-08T07:01:39;2.70;;;1.83;;
24159;SDS011;62385;41.594;23.808;2023-03-08T07:04:05;1.70;;;0.70;;
24159;SDS011;62385;41.594;23.808;2023-03-08T07:06:31;1.87;;;1.67;;
24159;SDS011;62385;41.594;23.808;2023-03-08T07:08:58;2.37;;;1.77;;
24159;SDS011;62385;41.594;23.808;2023-03-08T07:11:23;10.90;;;2.30;;
24159;SDS011;62385;41.594;23.808;2023-03-08T07:13:51;2.90;;;2.27;;
24159;SDS011;62385;41.594;23.808;2023-03-08T07:16:16;1.50;;;1.40;;
24159;SDS011;62385;41.594;23.808;2023-03-08T07:18:43;2.90;;;2.60;;
24159;SDS011;62385;41.594;23.808;2023-03-08T07:21:09;5.33;;;3.30;;
24159;SDS011;62385;41.594;23.808;2023-03-08T07:23:35;5.77;;;3.83;;
24159;SDS011;62385;41.594;23.808;2023-03-08T07:26:07;3.93;;;2.20;;
24159;SDS011;62385;41.594;23.808;2023-03-08T07:28:35;5.37;;;3.73;;
24159;SDS011;62385;41.594;23.808;2023-03-08T07:31:00;5.70;;;2.70;;
24159;SDS011;62385;41.594;23.808;2023-03-08T07:33:26;1.83;;;1.43;;
24159;SDS011;62385;41.594;23.808;2023-03-08T07:35:51;9.60;;;5.17;;
24159;SDS011;62385;41.594;23.808;2023-03-08T07:38:35;5.87;;;1.90;;
24159;SDS011;62385;41.594;23.808;2023-03-08T07:41:01;2.10;;;1.47;;
24159;SDS011;62385;41.594;23.808;2023-03-08T07:43:27;1.87;;;1.20;;
24159;SDS011;62385;41.594;23.808;2023-03-08T07:46:00;1.37;;;1.27;;
24159;SDS011;62385;41.594;23.808;2023-03-08T07:48:27;2.30;;;1.07;;
24159;SDS011;62385;41.594;23.808;2023-03-08T07:50:53;5.57;;;1.43;;
24159;SDS011;62385;41.594;23.808;2023-03-08T07:53:19;2.17;;;1.97;;
24159;SDS011;62385;41.594;23.808;2023-03-08T07:55:45;2.93;;;1.73;;
24159;SDS011;62385;41.594;23.808;2023-03-08T07:58:11;3.63;;;2.40;;
24159;SDS011;62385;41.594;23.808;2023-03-08T08:00:36;3.53;;;2.70;;
24159;SDS011;62385;41.594;23.808;2023-03-08T08:03:20;0.90;;;0.80;;
24159;SDS011;62385;41.594;23.808;2023-03-08T08:05:47;0.87;;;0.70;;
24159;SDS011;62385;41.594;23.808;2023-03-08T08:08:12;2.47;;;1.20;;
24159;SDS011;62385;41.594;23.808;2023-03-08T08:10:38;9.70;;;5.73;;
24159;SDS011;62385;41.594;23.808;2023-03-08T08:13:04;1.60;;;1.50;;
24159;SDS011;62385;41.594;23.808;2023-03-08T08:15:30;5.93;;;1.07;;
24159;SDS011;62385;41.594;23.808;2023-03-08T08:17:57;4.50;;;2.57;;
24159;SDS011;62385;41.594;23.808;2023-03-08T08:20:23;3.57;;;2.60;;
24159;SDS011;62385;41.594;23.808;2023-03-08T08:22:49;3.87;;;1.53;;
24159;SDS011;62385;41.594;23.808;2023-03-08T08:25:19;0.30;;;0.30;;
24159;SDS011;62385;41.594;23.808;2023-03-08T08:27:45;1.13;;;0.80;;
24159;SDS011;62385;41.594;23.808;2023-03-08T08:30:11;1.23;;;0.97;;
24159;SDS011;62385;41.594;23.808;2023-03-08T08:32:38;1.50;;;0.83;;
24159;SDS011;62385;41.594;23.808;2023-03-08T08:35:04;10.37;;;5.57;;
24159;SDS011;62385;41.594;23.808;2023-03-08T08:37:31;2.80;;;1.47;;
24159;SDS011;62385;41.594;23.808;2023-03-08T08:39:57;1.20;;;1.10;;
24159;SDS011;62385;41.594;23.808;2023-03-08T08:42:23;0.90;;;0.40;;
24159;SDS011;62385;41.594;23.808;2023-03-08T08:44:50;0.60;;;0.27;;
24159;SDS011;62385;41.594;23.808;2023-03-08T08:47:17;0.57;;;0.57;;
24159;SDS011;62385;41.594;23.808;2023-03-08T08:49:43;0.60;;;0.40;;
24159;SDS011;62385;41.594;23.808;2023-03-08T08:52:08;0.77;;;0.70;;
24159;SDS011;62385;41.594;23.808;2023-03-08T08:54:34;1.20;;;0.63;;
24159;SDS011;62385;41.594;23.808;2023-03-08T08:57:02;2.03;;;0.77;;
24159;SDS011;62385;41.594;23.808;2023-03-08T08:59:27;1.20;;;0.90;;
24159;SDS011;62385;41.594;23.808;2023-03-08T09:08:10;1.30;;;1.07;;
24159;SDS011;62385;41.594;23.808;2023-03-08T09:10:38;1.17;;;0.60;;
24159;SDS011;62385;41.594;23.808;2023-03-08T09:13:04;0.67;;;0.67;;
24159;SDS011;62385;41.594;23.808;2023-03-08T09:15:30;5.00;;;0.63;;
24159;SDS011;62385;41.594;23.808;2023-03-08T09:17:56;0.90;;;0.60;;
24159;SDS011;62385;41.594;23.808;2023-03-08T09:20:40;0.93;;;0.50;;
24159;SDS011;62385;41.594;23.808;2023-03-08T09:23:06;0.60;;;0.50;;
24159;SDS011;62385;41.594;23.808;2023-03-08T09:25:32;1.77;;;0.90;;
24159;SDS011;62385;41.594;23.808;2023-03-08T09:27:58;3.90;;;2.40;;
24159;SDS011;62385;41.594;23.808;2023-03-08T09:30:23;6.67;;;2.10;;
24159;SDS011;62385;41.594;23.808;2023-03-08T09:32:48;4.73;;;2.87;;
24159;SDS011;62385;41.594;23.808;2023-03-08T09:35:14;1.13;;;0.83;;
24159;SDS011;62385;41.594;23.808;2023-03-08T09:37:40;1.20;;;0.95;;
24159;SDS011;62385;41.594;23.808;2023-03-08T09:40:05;1.30;;;1.13;;
24159;SDS011;62385;41.594;23.808;2023-03-08T09:42:34;3.37;;;2.73;;
24159;SDS011;62385;41.594;23.808;2023-03-08T09:55:32;1.30;;;0.57;;
24159;SDS011;62385;41.594;23.808;2023-03-08T09:58:04;0.43;;;0.40;;
24159;SDS011;62385;41.594;23.808;2023-03-08T10:00:43;12.97;;;3.77;;
24159;SDS011;62385;41.594;23.808;2023-03-08T10:14:30;1.13;;;1.02;;
24159;SDS011;62385;41.594;23.808;2023-03-08T10:17:00;0.30;;;0.30;;
24159;SDS011;62385;41.594;23.808;2023-03-08T10:19:36;1.63;;;1.52;;
24159;SDS011;62385;41.594;23.808;2023-03-08T10:22:10;1.75;;;1.35;;
24159;SDS011;62385;41.594;23.808;2023-03-08T10:24:59;1.52;;;1.00;;
24159;SDS011;62385;41.594;23.808;2023-03-08T10:27:31;0.98;;;0.45;;
24159;SDS011;62385;41.594;23.808;2023-03-08T10:29:59;1.65;;;1.20;;
24159;SDS011;62385;41.594;23.808;2023-03-08T10:32:26;1.75;;;0.60;;
24159;SDS011;62385;41.594;23.808;2023-03-08T10:35:02;0.40;;;0.40;;
24159;SDS011;62385;41.594;23.808;2023-03-08T10:37:29;1.15;;;0.77;;
24159;SDS011;62385;41.594;23.808;2023-03-08T10:39:59;2.67;;;0.68;;
24159;SDS011;62385;41.594;23.808;2023-03-08T10:42:29;0.60;;;0.60;;
24159;SDS011;62385;41.594;23.808;2023-03-08T10:50:30;1.13;;;0.60;;
24159;SDS011;62385;41.594;23.808;2023-03-08T10:53:07;1.17;;;1.02;;
24159;SDS011;62385;41.594;23.808;2023-03-08T10:55:42;3.50;;;1.25;;
24159;SDS011;62385;41.594;23.808;2023-03-08T11:01:21;2.08;;;0.90;;
24159;SDS011;62385;41.594;23.808;2023-03-08T11:06:53;1.80;;;1.13;;
24159;SDS011;62385;41.594;23.808;2023-03-08T11:12:01;1.50;;;1.00;;
24159;SDS011;62385;41.594;23.808;2023-03-08T11:14:27;1.05;;;0.70;;
24159;SDS011;62385;41.594;23.808;2023-03-08T11:19:44;0.30;;;0.30;;
24159;SDS011;62385;41.594;23.808;2023-03-08T11:28:56;0.32;;;0.32;;
24159;SDS011;62385;41.594;23.808;2023-03-08T11:40:21;4.85;;;2.20;;
24159;SDS011;62385;41.594;23.808;2023-03-08T11:45:42;0.45;;;0.32;;
24159;SDS011;62385;41.594;23.808;2023-03-08T11:48:39;1.67;;;0.93;;
24159;SDS011;62385;41.594;23.808;2023-03-08T11:56:56;0.20;;;0.20;;
24159;SDS011;62385;41.594;23.808;2023-03-08T12:07:35;0.85;;;0.40;;
24159;SDS011;62385;41.594;23.808;2023-03-08T12:15:46;0.55;;;0.22;;
24159;SDS011;62385;41.594;23.808;2023-03-08T12:18:23;0.68;;;0.30;;
24159;SDS011;62385;41.594;23.808;2023-03-08T12:26:29;0.45;;;0.30;;
24159;SDS011;62385;41.594;23.808;2023-03-08T12:29:12;0.35;;;0.30;;
24159;SDS011;62385;41.594;23.808;2023-03-08T12:31:50;0.20;;;0.10;;
24159;SDS011;62385;41.594;23.808;2023-03-08T12:34:27;1.27;;;0.60;;
24159;SDS011;62385;41.594;23.808;2023-03-08T12:37:01;0.40;;;0.40;;
24159;SDS011;62385;41.594;23.808;2023-03-08T12:39:32;0.28;;;0.20;;
24159;SDS011;62385;41.594;23.808;2023-03-08T12:42:01;0.47;;;0.32;;
24159;SDS011;62385;41.594;23.808;2023-03-08T12:44:28;0.68;;;0.43;;
24159;SDS011;62385;41.594;23.808;2023-03-08T12:47:00;0.68;;;0.55;;
24159;SDS011;62385;41.594;23.808;2023-03-08T12:49:44;2.60;;;0.93;;
24159;SDS011;62385;41.594;23.808;2023-03-08T12:54:43;0.45;;;0.40;;
24159;SDS011;62385;41.594;23.808;2023-03-08T12:57:22;0.35;;;0.30;;
24159;SDS011;62385;41.594;23.808;2023-03-08T12:59:55;0.40;;;0.40;;
24159;SDS011;62385;41.594;23.808;2023-03-08T13:02:26;0.35;;;0.32;;
24159;SDS011;62385;41.594;23.808;2023-03-08T13:05:04;0.20;;;0.10;;
24159;SDS011;62385;41.594;23.808;2023-03-08T13:10:33;0.32;;;0.22;;
24159;SDS011;62385;41.594;23.808;2023-03-08T13:15:33;2.50;;;0.30;;
24159;SDS011;62385;41.594;23.808;2023-03-08T13:26:20;0.45;;;0.20;;
24159;SDS011;62385;41.594;23.808;2023-03-08T13:29:01;1.02;;;0.52;;
24159;SDS011;62385;41.594;23.808;2023-03-08T13:31:36;1.45;;;0.73;;
24159;SDS011;62385;41.594;23.808;2023-03-08T13:34:01;0.60;;;0.35;;
24159;SDS011;62385;41.594;23.808;2023-03-08T13:36:28;0.40;;;0.40;;
24159;SDS011;62385;41.594;23.808;2023-03-08T13:39:03;0.60;;;0.38;;
24159;SDS011;62385;41.594;23.808;2023-03-08T13:41:34;0.93;;;0.40;;
24159;SDS011;62385;41.594;23.808;2023-03-08T13:44:05;0.30;;;0.30;;
24159;SDS011;62385;41.594;23.808;2023-03-08T13:46:38;0.85;;;0.47;;
24159;SDS011;62385;41.594;23.808;2023-03-08T13:49:17;1.17;;;0.28;;
24159;SDS011;62385;41.594;23.808;2023-03-08T13:51:47;0.77;;;0.43;;
24159;SDS011;62385;41.594;23.808;2023-03-08T13:54:16;0.35;;;0.28;;
24159;SDS011;62385;41.594;23.808;2023-03-08T13:57:03;0.20;;;0.20;;
24159;SDS011;62385;41.594;23.808;2023-03-08T13:59:31;0.30;;;0.20;;
24159;SDS011;62385;41.594;23.808;2023-03-08T14:01:59;1.05;;;0.28;;
24159;SDS011;62385;41.594;23.808;2023-03-08T14:04:26;0.60;;;0.40;;
24159;SDS011;62385;41.594;23.808;2023-03-08T14:06:57;0.68;;;0.32;;
24159;SDS011;62385;41.594;23.808;2023-03-08T14:09:25;0.40;;;0.30;;
24159;SDS011;62385;41.594;23.808;2023-03-08T14:12:01;0.43;;;0.40;;
24159;SDS011;62385;41.594;23.808;2023-03-08T14:14:30;1.15;;;0.50;;
24159;SDS011;62385;41.594;23.808;2023-03-08T14:17:01;0.82;;;0.82;;
24159;SDS011;62385;41.594;23.808;2023-03-08T14:19:34;1.85;;;0.85;;
24159;SDS011;62385;41.594;23.808;2023-03-08T14:22:13;0.20;;;0.17;;
24159;SDS011;62385;41.594;23.808;2023-03-08T14:24:42;1.00;;;0.50;;
24159;SDS011;62385;41.594;23.808;2023-03-08T14:29:38;0.55;;;0.40;;
24159;SDS011;62385;41.594;23.808;2023-03-08T14:34:37;0.65;;;0.52;;
24159;SDS011;62385;41.594;23.808;2023-03-08T14:37:26;2.72;;;0.30;;
24159;SDS011;62385;41.594;23.808;2023-03-08T14:39:52;0.20;;;0.20;;
24159;SDS011;62385;41.594;23.808;2023-03-08T14:47:57;0.32;;;0.30;;
24159;SDS011;62385;41.594;23.808;2023-03-08T14:50:28;0.20;;;0.15;;
24159;SDS011;62385;41.594;23.808;2023-03-08T14:52:56;0.30;;;0.22;;
24159;SDS011;62385;41.594;23.808;2023-03-08T14:55:24;0.38;;;0.15;;
24159;SDS011;62385;41.594;23.808;2023-03-08T14:57:53;2.45;;;0.43;;
24159;SDS011;62385;41.594;23.808;2023-03-08T15:00:20;0.47;;;0.30;;
24159;SDS011;62385;41.594;23.808;2023-03-08T15:02:47;0.22;;;0.22;;
24159;SDS011;62385;41.594;23.808;2023-03-08T15:05:17;0.50;;;0.32;;
24159;SDS011;62385;41.594;23.808;2023-03-08T15:07:45;0.28;;;0.17;;
24159;SDS011;62385;41.594;23.808;2023-03-08T15:12:50;0.30;;;0.30;;
24159;SDS011;62385;41.594;23.808;2023-03-08T15:15:16;0.45;;;0.28;;
24159;SDS011;62385;41.594;23.808;2023-03-08T15:17:41;0.30;;;0.30;;
24159;SDS011;62385;41.594;23.808;2023-03-08T15:20:08;1.02;;;0.40;;
24159;SDS011;62385;41.594;23.808;2023-03-08T15:22:37;0.40;;;0.20;;
24159;SDS011;62385;41.594;23.808;2023-03-08T15:25:24;0.68;;;0.38;;
24159;SDS011;62385;41.594;23.808;2023-03-08T15:27:52;0.20;;;0.10;;
24159;SDS011;62385;41.594;23.808;2023-03-08T15:30:19;0.70;;;0.20;;
24159;SDS011;62385;41.594;23.808;2023-03-08T15:32:47;0.98;;;0.55;;
24159;SDS011;62385;41.594;23.808;2023-03-08T15:35:13;0.85;;;0.40;;
24159;SDS011;62385;41.594;23.808;2023-03-08T15:37:39;0.82;;;0.50;;
24159;SDS011;62385;41.594;23.808;2023-03-08T15:40:13;0.70;;;0.60;;
24159;SDS011;62385;41.594;23.808;2023-03-08T15:42:44;0.40;;;0.40;;
24159;SDS011;62385;41.594;23.808;2023-03-08T15:45:10;0.40;;;0.40;;
24159;SDS011;62385;41.594;23.808;2023-03-08T15:47:37;1.27;;;0.80;;
24159;SDS011;62385;41.594;23.808;2023-03-08T15:50:03;0.65;;;0.35;;
24159;SDS011;62385;41.594;23.808;2023-03-08T15:52:31;0.60;;;0.35;;
24159;SDS011;62385;41.594;23.808;2023-03-08T15:54:57;1.00;;;0.47;;
24159;SDS011;62385;41.594;23.808;2023-03-08T15:57:22;0.47;;;0.28;;
24159;SDS011;62385;41.594;23.808;2023-03-08T15:59:48;0.32;;;0.32;;
24159;SDS011;62385;41.594;23.808;2023-03-08T16:02:16;1.58;;;0.88;;
24159;SDS011;62385;41.594;23.808;2023-03-08T16:04:43;1.02;;;0.80;;
24159;SDS011;62385;41.594;23.808;2023-03-08T16:07:15;1.00;;;0.82;;
24159;SDS011;62385;41.594;23.808;2023-03-08T16:09:41;2.42;;;2.22;;
24159;SDS011;62385;41.594;23.808;2023-03-08T16:12:07;5.72;;;2.10;;
24159;SDS011;62385;41.594;23.808;2023-03-08T16:14:34;11.57;;;2.60;;
24159;SDS011;62385;41.594;23.808;2023-03-08T16:17:01;0.93;;;0.70;;
24159;SDS011;62385;41.594;23.808;2023-03-08T16:19:31;0.60;;;0.38;;
24159;SDS011;62385;41.594;23.808;2023-03-08T16:21:57;1.20;;;0.65;;
24159;SDS011;62385;41.594;23.808;2023-03-08T16:24:23;0.93;;;0.77;;
24159;SDS011;62385;41.594;23.808;2023-03-08T16:26:49;1.75;;;0.93;;
24159;SDS011;62385;41.594;23.808;2023-03-08T16:29:14;3.00;;;0.88;;
24159;SDS011;62385;41.594;23.808;2023-03-08T16:31:40;0.85;;;0.75;;
24159;SDS011;62385;41.594;23.808;2023-03-08T16:34:06;5.65;;;2.47;;
24159;SDS011;62385;41.594;23.808;2023-03-08T16:36:33;1.35;;;0.80;;
24159;SDS011;62385;41.594;23.808;2023-03-08T16:38:58;1.80;;;1.00;;
24159;SDS011;62385;41.594;23.808;2023-03-08T16:41:42;1.65;;;0.90;;
24159;SDS011;62385;41.594;23.808;2023-03-08T16:44:20;2.03;;;1.30;;
24159;SDS011;62385;41.594;23.808;2023-03-08T16:46:50;3.97;;;1.92;;